Time;durP1;ratioP1;P1;durP2;ratioP2;P2;SDS_P1;SDS_P2;PMS_P1;PMS_P2;Temp;Humidity;BMP_temperature;BMP_pressure;BME280_temperature;BME280_humidity;BME280_pressure;Samples;Min_cycle;Max_cycle;Signal;HPM_P1;HPM_P2
2023/01/04 00:00:44;;;;;;;;;;;4.50;89.90;;;;;;5017913;28;19924;-77
2023/01/04 00:03:10;;;;;;;;;;;4.50;90.00;;;;;;5036288;28;20445;-76
2023/01/04 00:05:35;;;;;;;;;;;4.50;89.90;;;;;;5017563;28;19925;-76
2023/01/04 00:08:01;;;;;;;;;;;4.50;89.90;;;;;;5035314;28;19932;-76
2023/01/04 00:10:26;;;;;;;;;;;4.50;90.00;;;;;;5037556;28;19920;-76
2023/01/04 00:12:51;;;;;;;;;;;4.50;89.90;;;;;;5034041;28;19971;-75
2023/01/04 00:15:17;;;;;;;;;;;4.50;89.90;;;;;;5038154;28;19921;-76
2023/01/04 00:17:43;;;;;;;;;;;4.50;89.90;;;;;;5038013;28;20403;-74
2023/01/04 00:20:08;;;;;;;;;;;4.50;90.00;;;;;;5054085;28;19943;-76
2023/01/04 00:22:34;;;;;;;;;;;4.50;89.90;;;;;;5035008;28;19921;-76
2023/01/04 00:24:59;;;;;;;;;;;4.40;89.90;;;;;;5046370;28;19931;-76
2023/01/04 00:27:24;;;;;;;;;;;4.40;89.90;;;;;;5031322;28;19929;-76
2023/01/04 00:29:50;;;;;;;;;;;4.40;89.90;;;;;;5019489;28;19925;-76
2023/01/04 00:32:15;;;;;;;;;;;4.40;90.00;;;;;;5039075;28;20321;-76
2023/01/04 00:34:41;;;;;;;;;;;4.40;90.00;;;;;;5035219;28;20508;-76
2023/01/04 00:37:06;;;;;;;;;;;4.40;90.30;;;;;;5036706;28;19916;-76
2023/01/04 00:39:32;;;;;;;;;;;4.30;89.90;;;;;;5037691;28;19927;-76
2023/01/04 00:42:04;;;;;;;;;;;4.30;90.00;;;;;;5034305;28;20343;-76
2023/01/04 00:44:32;;;;;;;;;;;4.30;89.90;;;;;;5036025;28;20014;-76
2023/01/04 00:46:58;;;;;;;;;;;4.20;89.90;;;;;;5032753;28;20408;-76
2023/01/04 00:49:24;;;;;;;;;;;4.20;89.90;;;;;;5020854;28;19927;-76
2023/01/04 00:51:49;;;;;;;;;;;4.20;90.00;;;;;;5047211;28;19921;-77
2023/01/04 00:54:15;;;;;;;;;;;4.20;90.00;;;;;;5038041;28;19928;-76
2023/01/04 00:56:41;;;;;;;;;;;4.20;90.00;;;;;;5034951;28;19927;-77
2023/01/04 00:59:06;;;;;;;;;;;4.10;90.00;;;;;;5018142;28;19928;-76
2023/01/04 01:01:32;;;;;;;;;;;4.10;90.00;;;;;;5034493;28;19927;-76
2023/01/04 01:03:58;;;;;;;;;;;4.10;90.00;;;;;;5032783;28;20005;-76
2023/01/04 01:06:23;;;;;;;;;;;4.10;90.00;;;;;;5033508;28;19921;-76
2023/01/04 01:08:49;;;;;;;;;;;4.10;90.00;;;;;;5035129;28;20674;-76
2023/01/04 01:11:15;;;;;;;;;;;4.00;90.00;;;;;;5053045;28;19967;-76
2023/01/04 01:13:40;;;;;;;;;;;4.00;90.00;;;;;;5037251;28;19967;-76
2023/01/04 01:16:09;;;;;;;;;;;4.00;90.00;;;;;;5037239;28;19932;-76
2023/01/04 01:18:35;;;;;;;;;;;4.00;90.00;;;;;;5019794;28;19967;-75
2023/01/04 01:21:04;;;;;;;;;;;4.00;90.00;;;;;;5036040;28;20605;-76
2023/01/04 01:23:29;;;;;;;;;;;4.00;90.00;;;;;;5033416;28;19960;-76
2023/01/04 01:25:58;;;;;;;;;;;4.00;90.00;;;;;;5029769;28;19996;-76
2023/01/04 01:28:24;;;;;;;;;;;3.90;90.00;;;;;;5036403;28;19921;-76
2023/01/04 01:30:49;;;;;;;;;;;3.90;90.00;;;;;;5033529;28;19931;-75
2023/01/04 01:33:15;;;;;;;;;;;3.90;90.00;;;;;;5036231;28;19956;-76
2023/01/04 01:35:40;;;;;;;;;;;3.90;90.10;;;;;;5035945;28;19924;-76
2023/01/04 01:38:05;;;;;;;;;;;3.90;90.00;;;;;;5034557;28;19932;-76
2023/01/04 01:40:31;;;;;;;;;;;3.90;90.00;;;;;;5036130;28;19920;-76
2023/01/04 01:42:56;;;;;;;;;;;3.80;90.00;;;;;;5031435;28;20552;-76
2023/01/04 01:45:22;;;;;;;;;;;3.80;90.00;;;;;;5033091;28;19952;-76
2023/01/04 01:47:47;;;;;;;;;;;3.80;90.00;;;;;;5033477;28;19923;-76
2023/01/04 01:50:23;;;;;;;;;;;3.70;90.00;;;;;;5037221;28;19928;-76
2023/01/04 01:52:49;;;;;;;;;;;3.70;90.00;;;;;;5031105;28;20024;-75
2023/01/04 01:55:15;;;;;;;;;;;3.70;90.10;;;;;;5039180;28;20625;-75
2023/01/04 01:57:41;;;;;;;;;;;3.70;90.10;;;;;;5033594;28;19924;-76
2023/01/04 02:00:07;;;;;;;;;;;3.60;90.00;;;;;;5033435;28;19974;-76
2023/01/04 02:02:33;;;;;;;;;;;3.60;90.10;;;;;;5017874;28;20302;-75
2023/01/04 02:04:58;;;;;;;;;;;3.60;90.10;;;;;;5018873;28;19928;-76
2023/01/04 02:07:25;;;;;;;;;;;3.50;90.10;;;;;;5035242;28;20161;-75
2023/01/04 02:09:50;;;;;;;;;;;3.50;90.10;;;;;;5033427;28;19955;-76
2023/01/04 02:12:15;;;;;;;;;;;3.50;90.10;;;;;;5049475;28;20007;-76
2023/01/04 02:14:41;;;;;;;;;;;3.50;90.10;;;;;;5033713;28;20599;-76
2023/01/04 02:17:14;;;;;;;;;;;3.40;90.10;;;;;;5035462;28;19931;-75
2023/01/04 02:19:45;;;;;;;;;;;3.40;90.10;;;;;;5032260;28;19921;-76
2023/01/04 02:22:29;;;;;;;;;;;3.40;90.10;;;;;;5031843;28;20413;-76
2023/01/04 02:25:01;;;;;;;;;;;3.40;90.10;;;;;;5028525;28;19936;-76
2023/01/04 02:27:47;;;;;;;;;;;3.40;90.10;;;;;;5037265;28;20012;-76
2023/01/04 02:30:12;;;;;;;;;;;3.40;90.10;;;;;;5027259;28;19979;-75
2023/01/04 02:32:41;;;;;;;;;;;3.40;90.20;;;;;;5034797;28;19925;-75
2023/01/04 02:35:13;;;;;;;;;;;3.40;90.20;;;;;;5019372;28;19925;-76
2023/01/04 02:37:40;;;;;;;;;;;3.40;90.20;;;;;;5035879;28;19986;-76
2023/01/04 02:40:13;;;;;;;;;;;3.40;90.20;;;;;;5034687;28;20374;-75
2023/01/04 02:45:26;;;;;;;;;;;3.40;90.20;;;;;;5035765;28;20008;-76
2023/01/04 02:50:38;;;;;;;;;;;3.40;90.20;;;;;;5038560;28;19927;-76
2023/01/04 02:53:04;;;;;;;;;;;3.40;90.20;;;;;;5039495;28;19975;-76
2023/01/04 02:55:32;;;;;;;;;;;3.40;90.20;;;;;;5037676;28;20571;-75
2023/01/04 02:57:59;;;;;;;;;;;3.40;90.20;;;;;;5034629;28;19925;-75
2023/01/04 03:00:28;;;;;;;;;;;3.40;90.20;;;;;;5033987;28;19921;-75
2023/01/04 03:06:14;;;;;;;;;;;3.40;90.20;;;;;;4999062;28;19967;-76
2023/01/04 03:08:42;;;;;;;;;;;3.40;90.20;;;;;;4982115;28;20096;-75
2023/01/04 03:14:07;;;;;;;;;;;3.40;90.20;;;;;;4986330;28;20008;-75
2023/01/04 03:16:32;;;;;;;;;;;3.40;90.20;;;;;;4984209;28;19922;-76
2023/01/04 03:19:03;;;;;;;;;;;3.40;90.20;;;;;;4967243;28;19996;-75
2023/01/04 03:21:28;;;;;;;;;;;3.40;90.20;;;;;;4987484;28;19918;-75
2023/01/04 03:43:08;;;;;;;;;;;3.40;90.20;;;;;;4976038;28;20502;-74
2023/01/04 03:49:06;;;;;;;;;;;3.40;90.20;;;;;;5035118;28;20601;-76
2023/01/04 03:51:33;;;;;;;;;;;3.30;90.20;;;;;;5021365;28;19921;-75
2023/01/04 03:54:02;;;;;;;;;;;3.30;90.20;;;;;;5033033;28;19928;-74
2023/01/04 03:56:28;;;;;;;;;;;3.30;90.20;;;;;;5035285;28;20654;-75
2023/01/04 03:58:53;;;;;;;;;;;3.30;90.20;;;;;;5036692;28;19921;-75
2023/01/04 04:01:19;;;;;;;;;;;3.30;90.20;;;;;;5033418;28;19963;-75
2023/01/04 04:09:13;;;;;;;;;;;3.30;90.30;;;;;;5036300;28;19928;-76
2023/01/04 04:11:38;;;;;;;;;;;3.40;90.30;;;;;;5037181;28;20472;-75
2023/01/04 04:14:04;;;;;;;;;;;3.40;90.30;;;;;;5036485;28;19927;-76
2023/01/04 04:16:29;;;;;;;;;;;3.50;90.40;;;;;;5020123;28;19998;-75
2023/01/04 04:18:55;;;;;;;;;;;3.50;90.40;;;;;;5020215;28;19921;-76
2023/01/04 04:21:20;;;;;;;;;;;3.60;90.70;;;;;;5031654;28;19920;-75
2023/01/04 04:23:46;;;;;;;;;;;3.70;90.40;;;;;;5049650;28;19956;-76
2023/01/04 04:26:11;;;;;;;;;;;3.80;90.40;;;;;;5017627;28;19929;-75
2023/01/04 04:28:38;;;;;;;;;;;3.90;90.40;;;;;;5036569;28;20356;-74
2023/01/04 04:31:03;;;;;;;;;;;4.00;90.40;;;;;;5035333;28;19927;-75
2023/01/04 04:33:29;;;;;;;;;;;4.10;90.30;;;;;;5035250;28;20429;-76
2023/01/04 04:35:54;;;;;;;;;;;4.20;90.30;;;;;;5035026;28;19929;-75
2023/01/04 04:38:20;;;;;;;;;;;4.20;90.30;;;;;;5034159;28;20686;-75
2023/01/04 04:43:29;;;;;;;;;;;4.40;90.30;;;;;;5033686;28;19932;-75
2023/01/04 04:45:55;;;;;;;;;;;4.50;90.30;;;;;;5033206;28;19920;-75
2023/01/04 04:48:20;;;;;;;;;;;4.60;90.30;;;;;;5032122;28;19928;-75
2023/01/04 04:50:46;;;;;;;;;;;4.60;90.60;;;;;;5032747;28;20497;-75
2023/01/04 04:53:11;;;;;;;;;;;4.60;90.20;;;;;;5020685;28;19944;-76
2023/01/04 04:55:37;;;;;;;;;;;4.70;90.20;;;;;;5033803;28;19928;-74
2023/01/04 04:58:02;;;;;;;;;;;4.70;90.10;;;;;;5036036;28;19924;-75
2023/01/04 05:00:28;;;;;;;;;;;4.80;90.50;;;;;;5035059;28;20760;-76
2023/01/04 05:02:53;;;;;;;;;;;4.80;90.10;;;;;;5047790;28;19975;-75
2023/01/04 05:05:18;;;;;;;;;;;4.90;90.10;;;;;;5032237;28;20753;-76
2023/01/04 05:07:44;;;;;;;;;;;4.90;90.10;;;;;;5034152;28;19921;-75
2023/01/04 05:10:09;;;;;;;;;;;4.90;90.10;;;;;;5036480;28;19929;-75
2023/01/04 05:15:19;;;;;;;;;;;4.90;90.10;;;;;;5035584;28;19943;-75
2023/01/04 05:17:44;;;;;;;;;;;5.00;90.10;;;;;;5035613;28;20458;-75
2023/01/04 05:20:10;;;;;;;;;;;5.00;90.10;;;;;;5035652;28;20086;-76
2023/01/04 05:22:35;;;;;;;;;;;5.00;90.10;;;;;;5020107;28;19927;-74
2023/01/04 05:25:00;;;;;;;;;;;5.10;90.10;;;;;;5034390;28;20438;-74
2023/01/04 05:27:26;;;;;;;;;;;5.10;90.10;;;;;;5037302;28;19973;-74
2023/01/04 05:32:35;;;;;;;;;;;5.20;90.10;;;;;;5035556;28;19959;-75
2023/01/04 05:35:01;;;;;;;;;;;5.20;90.10;;;;;;5034389;28;20378;-74
2023/01/04 05:37:26;;;;;;;;;;;5.20;90.00;;;;;;5036073;28;19928;-75
2023/01/04 05:39:52;;;;;;;;;;;5.30;90.10;;;;;;5036320;28;19996;-76
2023/01/04 05:42:24;;;;;;;;;;;5.30;90.10;;;;;;5030438;28;20547;-76
2023/01/04 05:44:49;;;;;;;;;;;5.30;90.40;;;;;;5033012;28;20032;-75
2023/01/04 05:47:15;;;;;;;;;;;5.30;90.00;;;;;;5032542;28;20043;-75
2023/01/04 05:49:40;;;;;;;;;;;5.30;90.10;;;;;;5033680;28;19921;-75
2023/01/04 05:52:06;;;;;;;;;;;5.40;90.10;;;;;;5034860;28;19927;-75
2023/01/04 05:54:31;;;;;;;;;;;5.40;90.10;;;;;;5036690;28;19964;-76
2023/01/04 05:56:57;;;;;;;;;;;5.40;90.10;;;;;;5033349;28;20636;-76
2023/01/04 05:59:22;;;;;;;;;;;5.40;90.00;;;;;;5036388;28;19931;-76
2023/01/04 06:01:47;;;;;;;;;;;5.40;90.00;;;;;;5034782;28;19925;-75
2023/01/04 06:04:13;;;;;;;;;;;5.50;90.00;;;;;;5017845;28;19956;-74
2023/01/04 06:06:38;;;;;;;;;;;5.50;90.00;;;;;;5034374;28;20398;-75
2023/01/04 06:09:04;;;;;;;;;;;5.50;90.00;;;;;;5033482;28;19917;-75
2023/01/04 06:11:29;;;;;;;;;;;5.50;90.00;;;;;;5035532;28;20517;-75
2023/01/04 06:13:55;;;;;;;;;;;5.60;90.00;;;;;;5033557;28;19921;-76
2023/01/04 06:16:20;;;;;;;;;;;5.60;90.00;;;;;;5031566;28;19964;-76
2023/01/04 06:18:46;;;;;;;;;;;5.60;90.00;;;;;;5035689;28;19928;-76
2023/01/04 06:21:11;;;;;;;;;;;5.70;90.00;;;;;;5035612;28;19921;-76
2023/01/04 06:23:37;;;;;;;;;;;5.70;90.00;;;;;;5033186;28;20302;-74
2023/01/04 06:26:02;;;;;;;;;;;5.70;90.00;;;;;;5037591;28;19931;-76
2023/01/04 06:28:28;;;;;;;;;;;5.70;90.00;;;;;;5035961;28;19964;-76
2023/01/04 06:30:53;;;;;;;;;;;5.70;90.00;;;;;;5053334;28;20598;-76
2023/01/04 06:33:19;;;;;;;;;;;5.70;90.00;;;;;;5036597;28;19929;-75
2023/01/04 06:35:51;;;;;;;;;;;5.80;90.00;;;;;;5036758;28;20657;-76
2023/01/04 06:38:17;;;;;;;;;;;5.70;89.90;;;;;;5036117;28;19920;-76
2023/01/04 06:40:42;;;;;;;;;;;5.80;90.00;;;;;;5020455;28;20298;-74
2023/01/04 06:43:08;;;;;;;;;;;5.80;90.00;;;;;;5038007;28;20048;-75
2023/01/04 06:45:33;;;;;;;;;;;5.80;90.00;;;;;;5034130;28;19929;-76
2023/01/04 06:47:59;;;;;;;;;;;5.80;90.00;;;;;;5052019;28;19928;-76
2023/01/04 06:50:24;;;;;;;;;;;5.80;90.00;;;;;;5036950;28;19965;-76
2023/01/04 06:52:49;;;;;;;;;;;5.80;90.00;;;;;;5035599;28;19925;-76
2023/01/04 06:55:15;;;;;;;;;;;5.80;90.00;;;;;;5034103;28;20001;-76
2023/01/04 06:57:40;;;;;;;;;;;5.90;90.00;;;;;;5033733;28;19927;-76
2023/01/04 07:00:07;;;;;;;;;;;5.90;90.00;;;;;;5035736;28;19920;-75
2023/01/04 07:02:33;;;;;;;;;;;5.90;90.00;;;;;;5038722;28;19982;-76
2023/01/04 07:04:58;;;;;;;;;;;5.80;90.00;;;;;;5034498;28;19925;-76
2023/01/04 07:07:24;;;;;;;;;;;5.90;90.00;;;;;;5036687;28;20352;-76
2023/01/04 07:09:49;;;;;;;;;;;5.90;90.00;;;;;;5019521;28;19929;-76
2023/01/04 07:12:15;;;;;;;;;;;5.90;90.00;;;;;;5050993;28;19928;-76
2023/01/04 07:14:40;;;;;;;;;;;5.90;90.00;;;;;;5036577;28;19925;-76
2023/01/04 07:17:05;;;;;;;;;;;5.90;90.00;;;;;;5019735;28;19932;-76
2023/01/04 07:19:31;;;;;;;;;;;5.90;90.00;;;;;;5035150;28;19921;-75
2023/01/04 07:21:57;;;;;;;;;;;5.90;90.00;;;;;;5034640;28;20670;-76
2023/01/04 07:24:23;;;;;;;;;;;6.00;90.00;;;;;;5034963;28;19989;-76
2023/01/04 07:26:49;;;;;;;;;;;6.00;90.00;;;;;;5032549;28;20462;-76
2023/01/04 07:29:15;;;;;;;;;;;6.00;90.00;;;;;;5035781;28;19925;-76
2023/01/04 07:31:47;;;;;;;;;;;6.00;90.00;;;;;;5019553;28;20454;-75
2023/01/04 07:34:13;;;;;;;;;;;6.00;90.00;;;;;;5032745;28;19927;-76
2023/01/04 07:36:39;;;;;;;;;;;6.00;90.00;;;;;;5034236;28;19924;-76
2023/01/04 07:39:05;;;;;;;;;;;6.10;90.00;;;;;;5036060;28;19955;-76
2023/01/04 07:41:30;;;;;;;;;;;6.10;90.00;;;;;;5035615;28;19920;-76
2023/01/04 07:43:55;;;;;;;;;;;6.10;90.00;;;;;;5034781;28;20011;-76
2023/01/04 07:46:21;;;;;;;;;;;6.10;89.90;;;;;;5035592;28;19921;-77
2023/01/04 07:48:46;;;;;;;;;;;6.10;90.00;;;;;;5037237;28;20488;-76
2023/01/04 07:51:12;;;;;;;;;;;6.10;90.00;;;;;;5020461;28;19917;-75
2023/01/04 07:53:37;;;;;;;;;;;6.10;89.90;;;;;;5051574;28;19964;-75
2023/01/04 07:56:03;;;;;;;;;;;6.10;89.90;;;;;;5031502;28;19927;-76
2023/01/04 07:58:31;;;;;;;;;;;6.10;89.90;;;;;;5054117;28;20306;-76
2023/01/04 08:01:04;;;;;;;;;;;6.20;90.00;;;;;;5032468;28;19917;-76
2023/01/04 08:03:29;;;;;;;;;;;6.20;89.90;;;;;;5019414;28;19952;-74
2023/01/04 08:05:55;;;;;;;;;;;6.20;89.90;;;;;;5033572;28;19943;-76
2023/01/04 08:08:20;;;;;;;;;;;6.30;90.00;;;;;;5032467;28;19921;-76
2023/01/04 08:10:46;;;;;;;;;;;6.30;89.90;;;;;;5050538;28;19932;-76
2023/01/04 08:13:11;;;;;;;;;;;6.30;89.90;;;;;;5032647;28;19920;-75
2023/01/04 08:15:37;;;;;;;;;;;6.30;89.90;;;;;;5015908;28;19974;-75
2023/01/04 08:18:02;;;;;;;;;;;6.40;89.90;;;;;;5033126;28;19925;-76
2023/01/04 08:20:28;;;;;;;;;;;6.40;89.90;;;;;;5035078;28;19924;-76
2023/01/04 08:22:53;;;;;;;;;;;6.40;89.80;;;;;;5048853;28;20011;-76
2023/01/04 08:25:19;;;;;;;;;;;6.40;89.80;;;;;;5035673;28;19935;-76
2023/01/04 08:27:46;;;;;;;;;;;6.40;89.90;;;;;;5033838;28;24640;-75
2023/01/04 08:30:11;;;;;;;;;;;6.40;89.80;;;;;;5035044;28;20306;-74
2023/01/04 08:32:38;;;;;;;;;;;6.50;89.80;;;;;;5017974;28;19921;-76
2023/01/04 08:35:03;;;;;;;;;;;6.50;89.80;;;;;;5031333;28;19924;-76
2023/01/04 08:37:30;;;;;;;;;;;6.50;89.80;;;;;;5035081;28;20540;-75
2023/01/04 08:39:56;;;;;;;;;;;6.60;89.80;;;;;;5033782;28;19921;-76
2023/01/04 08:42:22;;;;;;;;;;;6.60;89.80;;;;;;5032711;28;19927;-76
2023/01/04 08:44:47;;;;;;;;;;;6.60;89.80;;;;;;5017354;28;21545;-76
2023/01/04 08:47:12;;;;;;;;;;;6.60;89.70;;;;;;5015417;28;19931;-73
2023/01/04 08:49:38;;;;;;;;;;;6.70;89.80;;;;;;5034140;28;19921;-75
2023/01/04 08:52:04;;;;;;;;;;;6.70;89.70;;;;;;5032784;28;20375;-76
2023/01/04 08:54:29;;;;;;;;;;;6.70;89.70;;;;;;5030941;28;19928;-76
2023/01/04 08:56:54;;;;;;;;;;;6.70;89.60;;;;;;5035239;28;19932;-76
2023/01/04 08:59:20;;;;;;;;;;;6.80;89.60;;;;;;5033709;28;19999;-76
2023/01/04 09:01:45;;;;;;;;;;;6.80;89.70;;;;;;5017748;28;20411;-76
2023/01/04 09:04:11;;;;;;;;;;;6.80;89.60;;;;;;5034779;28;19925;-76
2023/01/04 09:06:37;;;;;;;;;;;6.90;89.60;;;;;;5033184;28;19947;-76
2023/01/04 09:09:02;;;;;;;;;;;6.90;89.60;;;;;;5022162;28;20003;-76
2023/01/04 09:11:27;;;;;;;;;;;6.90;89.60;;;;;;5033793;28;19956;-70
2023/01/04 09:13:54;;;;;;;;;;;6.90;89.60;;;;;;5032646;28;20303;-71
2023/01/04 09:16:20;;;;;;;;;;;7.00;89.60;;;;;;5030512;28;19936;-68
2023/01/04 09:18:45;;;;;;;;;;;7.00;89.60;;;;;;5035225;28;19951;-68
2023/01/04 09:21:15;;;;;;;;;;;7.00;89.60;;;;;;5031966;28;19921;-72
2023/01/04 09:23:40;;;;;;;;;;;7.00;89.60;;;;;;5046564;28;19921;-70
2023/01/04 09:26:26;;;;;;;;;;;7.00;89.50;;;;;;5031809;28;19921;-71
2023/01/04 09:28:52;;;;;;;;;;;7.10;89.60;;;;;;5031843;28;19921;-71
2023/01/04 09:31:21;;;;;;;;;;;7.10;89.50;;;;;;5047274;28;19924;-71
2023/01/04 09:33:46;;;;;;;;;;;7.10;89.50;;;;;;5031857;28;20433;-71
2023/01/04 09:36:13;;;;;;;;;;;7.10;89.50;;;;;;5032931;28;19939;-71
2023/01/04 09:38:38;;;;;;;;;;;7.20;89.50;;;;;;5031765;28;19929;-71
2023/01/04 09:41:07;;;;;;;;;;;7.20;89.50;;;;;;5031400;28;21280;-76
2023/01/04 09:43:35;;;;;;;;;;;7.20;89.40;;;;;;5030405;28;20399;-71
2023/01/04 09:46:02;;;;;;;;;;;7.20;89.40;;;;;;5029739;28;20415;-72
2023/01/04 09:48:28;;;;;;;;;;;7.30;89.40;;;;;;5015689;28;19921;-71
2023/01/04 09:50:56;;;;;;;;;;;7.30;89.90;;;;;;5048380;28;20470;-76
2023/01/04 09:53:29;;;;;;;;;;;7.30;89.40;;;;;;5045454;28;19925;-75
2023/01/04 09:55:55;;;;;;;;;;;7.30;89.40;;;;;;5030592;28;19925;-76
2023/01/04 09:58:41;;;;;;;;;;;7.40;89.40;;;;;;5030361;28;19921;-75
2023/01/04 10:01:13;;;;;;;;;;;7.40;89.40;;;;;;5032549;28;20012;-75
2023/01/04 10:03:41;;;;;;;;;;;7.40;89.40;;;;;;5046037;28;19935;-76
2023/01/04 10:06:08;;;;;;;;;;;7.50;89.40;;;;;;5033861;28;20395;-74
2023/01/04 10:08:34;;;;;;;;;;;7.40;89.30;;;;;;5014694;28;19924;-75
2023/01/04 10:11:18;;;;;;;;;;;7.50;89.30;;;;;;5032248;28;19920;-75
2023/01/04 10:13:43;;;;;;;;;;;7.50;89.30;;;;;;5047807;28;19947;-74
2023/01/04 10:16:12;;;;;;;;;;;7.50;89.30;;;;;;5032911;28;20008;-75
2023/01/04 10:18:37;;;;;;;;;;;7.60;89.20;;;;;;5031267;28;21281;-74
2023/01/04 10:21:06;;;;;;;;;;;7.60;89.20;;;;;;5033321;28;20327;-76
2023/01/04 10:23:44;;;;;;;;;;;7.60;89.20;;;;;;5031407;28;19920;-75
2023/01/04 10:26:11;;;;;;;;;;;7.70;89.20;;;;;;5030840;28;20410;-75
2023/01/04 10:28:55;;;;;;;;;;;7.70;89.20;;;;;;5033600;28;19956;-76
2023/01/04 10:31:29;;;;;;;;;;;7.70;89.20;;;;;;5034347;28;19971;-75
2023/01/04 10:34:13;;;;;;;;;;;7.70;89.20;;;;;;5031111;28;20431;-75
2023/01/04 10:36:38;;;;;;;;;;;7.60;89.10;;;;;;5030694;28;19967;-75
2023/01/04 10:39:04;;;;;;;;;;;7.70;89.10;;;;;;5017024;28;20019;-75
2023/01/04 10:41:32;;;;;;;;;;;7.70;89.20;;;;;;5032955;28;19928;-75
2023/01/04 10:44:15;;;;;;;;;;;7.70;89.10;;;;;;5030716;28;19932;-75
2023/01/04 10:46:49;;;;;;;;;;;7.70;89.10;;;;;;5032354;28;19920;-76
2023/01/04 10:49:16;;;;;;;;;;;7.80;89.20;;;;;;5033175;28;20011;-75
2023/01/04 10:51:51;;;;;;;;;;;7.80;89.10;;;;;;5012815;28;20450;-75
2023/01/04 10:54:19;;;;;;;;;;;7.80;89.10;;;;;;5032296;28;20090;-75
2023/01/04 10:56:54;;;;;;;;;;;7.90;89.20;;;;;;5017483;28;20015;-75
2023/01/04 10:59:37;;;;;;;;;;;7.90;89.10;;;;;;5033085;28;20015;-75
2023/01/04 11:02:21;;;;;;;;;;;7.90;89.20;;;;;;5032720;28;19932;-76
2023/01/04 11:04:59;;;;;;;;;;;7.90;89.10;;;;;;5046315;28;19936;-76
2023/01/04 11:07:26;;;;;;;;;;;7.90;89.00;;;;;;5047247;28;19921;-76
2023/01/04 11:09:51;;;;;;;;;;;7.90;89.00;;;;;;5047133;28;20496;-76
2023/01/04 11:12:18;;;;;;;;;;;8.00;89.10;;;;;;5034867;28;19967;-76
2023/01/04 11:14:43;;;;;;;;;;;8.00;89.00;;;;;;5034911;28;20642;-75
2023/01/04 11:17:09;;;;;;;;;;;8.00;89.00;;;;;;5038389;28;19928;-75
2023/01/04 11:19:34;;;;;;;;;;;8.00;89.00;;;;;;5020132;28;19940;-75
2023/01/04 11:22:04;;;;;;;;;;;8.00;89.00;;;;;;5050515;28;19947;-76
2023/01/04 11:24:30;;;;;;;;;;;8.10;89.00;;;;;;5036901;28;20024;-75
2023/01/04 11:26:55;;;;;;;;;;;8.10;89.00;;;;;;5035354;28;19974;-76
2023/01/04 11:29:40;;;;;;;;;;;8.10;89.00;;;;;;5036389;28;19924;-76
2023/01/04 11:32:29;;;;;;;;;;;8.10;89.00;;;;;;5033353;28;19955;-76
2023/01/04 11:34:56;;;;;;;;;;;8.10;88.90;;;;;;5028991;28;21343;-75
2023/01/04 11:37:25;;;;;;;;;;;8.20;89.00;;;;;;5036095;28;19967;-76
2023/01/04 11:39:51;;;;;;;;;;;8.20;89.10;;;;;;5049590;28;19952;-76
2023/01/04 11:42:20;;;;;;;;;;;8.20;88.90;;;;;;5020162;28;20044;-75
2023/01/04 11:44:56;;;;;;;;;;;8.30;88.90;;;;;;5030437;28;20497;-76
2023/01/04 11:47:24;;;;;;;;;;;8.30;88.90;;;;;;5036172;28;19928;-75
2023/01/04 11:49:50;;;;;;;;;;;8.30;88.90;;;;;;5048655;28;20370;-77
2023/01/04 11:52:26;;;;;;;;;;;8.30;88.80;;;;;;5036759;28;19921;-77
2023/01/04 11:54:52;;;;;;;;;;;8.40;88.80;;;;;;5034137;28;19978;-76
2023/01/04 11:57:17;;;;;;;;;;;8.40;88.80;;;;;;5019818;28;19952;-76
2023/01/04 11:59:43;;;;;;;;;;;8.40;88.80;;;;;;5047938;28;19924;-75
2023/01/04 12:02:10;;;;;;;;;;;8.50;88.80;;;;;;5035484;28;19964;-76
2023/01/04 12:04:35;;;;;;;;;;;8.50;88.80;;;;;;5032787;28;19931;-75
2023/01/04 12:07:12;;;;;;;;;;;8.50;88.80;;;;;;5034966;28;20350;-75
2023/01/04 12:09:38;;;;;;;;;;;8.50;88.70;;;;;;5032878;28;19925;-75
2023/01/04 12:12:03;;;;;;;;;;;8.50;88.80;;;;;;5032206;28;20296;-76
2023/01/04 12:14:34;;;;;;;;;;;8.60;88.80;;;;;;5035378;28;19969;-77
2023/01/04 12:17:18;;;;;;;;;;;8.60;88.80;;;;;;5048811;28;19925;-76
2023/01/04 12:19:44;;;;;;;;;;;8.60;88.70;;;;;;5033440;28;19927;-76
2023/01/04 12:22:33;;;;;;;;;;;8.60;88.70;;;;;;5033837;28;19924;-76
2023/01/04 12:24:58;;;;;;;;;;;8.60;88.70;;;;;;5025500;28;19924;-76
2023/01/04 12:27:24;;;;;;;;;;;8.70;88.70;;;;;;5016646;28;19920;-77
2023/01/04 12:29:52;;;;;;;;;;;8.70;88.70;;;;;;5032925;28;19925;-76
2023/01/04 12:32:17;;;;;;;;;;;8.70;88.70;;;;;;5050520;28;19925;-77
2023/01/04 12:34:44;;;;;;;;;;;8.70;88.70;;;;;;5032031;28;19927;-76
2023/01/04 12:37:10;;;;;;;;;;;8.70;88.70;;;;;;5035249;28;19921;-76
2023/01/04 12:39:42;;;;;;;;;;;8.70;88.70;;;;;;5032942;28;19921;-76
2023/01/04 12:42:08;;;;;;;;;;;8.70;88.70;;;;;;5036052;28;19921;-72
2023/01/04 12:44:45;;;;;;;;;;;8.70;88.60;;;;;;5034993;28;19929;-77
2023/01/04 12:50:02;;;;;;;;;;;8.70;88.70;;;;;;5032538;28;19927;-76
2023/01/04 12:52:27;;;;;;;;;;;8.80;88.70;;;;;;5034442;28;20298;-75
2023/01/04 12:54:53;;;;;;;;;;;8.80;88.60;;;;;;5034390;28;20003;-76
2023/01/04 12:57:23;;;;;;;;;;;8.80;88.70;;;;;;5033566;28;19920;-77
2023/01/04 12:59:58;;;;;;;;;;;8.80;88.70;;;;;;5004702;28;19995;-76
2023/01/04 13:02:24;;;;;;;;;;;8.80;88.60;;;;;;5034359;28;19921;-76
2023/01/04 13:04:51;;;;;;;;;;;8.80;88.70;;;;;;5047343;28;19964;-76
2023/01/04 13:07:18;;;;;;;;;;;8.80;88.60;;;;;;5018660;28;19922;-77
2023/01/04 13:09:51;;;;;;;;;;;8.80;88.70;;;;;;5032560;28;20436;-76
2023/01/04 13:12:24;;;;;;;;;;;8.80;88.60;;;;;;5031231;28;19928;-76
2023/01/04 13:14:50;;;;;;;;;;;8.90;88.70;;;;;;5040212;28;20515;-77
2023/01/04 13:17:17;;;;;;;;;;;8.90;88.60;;;;;;5033611;28;19921;-76
2023/01/04 13:19:42;;;;;;;;;;;8.90;88.60;;;;;;5032470;28;20027;-76
2023/01/04 13:22:09;;;;;;;;;;;8.90;88.60;;;;;;5033705;28;19996;-76
2023/01/04 13:24:34;;;;;;;;;;;8.90;88.60;;;;;;5031197;28;19968;-76
2023/01/04 13:27:05;;;;;;;;;;;8.90;88.60;;;;;;5034899;28;19968;-77
2023/01/04 13:29:32;;;;;;;;;;;8.90;88.60;;;;;;5034385;28;20406;-77
2023/01/04 13:31:59;;;;;;;;;;;8.90;88.50;;;;;;5030766;28;19931;-77
2023/01/04 13:34:31;;;;;;;;;;;8.90;88.50;;;;;;5017716;28;19986;-77
2023/01/04 13:37:17;;;;;;;;;;;8.90;88.50;;;;;;5047899;28;20293;-77
2023/01/04 13:39:46;;;;;;;;;;;9.00;88.70;;;;;;5032255;28;19943;-76
2023/01/04 13:42:21;;;;;;;;;;;9.00;88.60;;;;;;5032966;28;20012;-77
2023/01/04 13:44:57;;;;;;;;;;;9.00;88.60;;;;;;5031372;28;20780;-77
2023/01/04 13:47:22;;;;;;;;;;;9.00;88.50;;;;;;5034310;28;19967;-77
2023/01/04 13:49:48;;;;;;;;;;;9.00;88.70;;;;;;5032334;28;20424;-77
2023/01/04 13:52:20;;;;;;;;;;;9.00;88.60;;;;;;5031564;28;19940;-77
2023/01/04 13:54:46;;;;;;;;;;;9.00;88.60;;;;;;5044602;28;19921;-77
2023/01/04 13:57:19;;;;;;;;;;;9.00;88.60;;;;;;5033646;28;19932;-77
2023/01/04 13:59:47;;;;;;;;;;;9.00;88.70;;;;;;5030048;28;19928;-76
2023/01/04 14:02:16;;;;;;;;;;;9.00;88.70;;;;;;5030692;28;20733;-77
2023/01/04 14:04:42;;;;;;;;;;;9.00;88.80;;;;;;5030914;28;19933;-75
2023/01/04 14:07:08;;;;;;;;;;;9.00;88.70;;;;;;5046341;28;19967;-78
2023/01/04 14:09:46;;;;;;;;;;;9.00;88.70;;;;;;5029375;28;20630;-76
2023/01/04 14:12:38;;;;;;;;;;;9.00;88.70;;;;;;5031537;28;19932;-78
2023/01/04 14:15:11;;;;;;;;;;;9.00;88.80;;;;;;5027631;28;20433;-77
2023/01/04 14:17:43;;;;;;;;;;;9.00;88.80;;;;;;5032663;28;19966;-77
2023/01/04 14:20:14;;;;;;;;;;;9.00;88.80;;;;;;5032608;28;19947;-76
2023/01/04 14:22:43;;;;;;;;;;;9.00;88.80;;;;;;5033234;28;19921;-76
2023/01/04 14:25:27;;;;;;;;;;;9.00;88.80;;;;;;5034021;28;19925;-76
2023/01/04 14:27:52;;;;;;;;;;;8.90;88.80;;;;;;5028707;28;19951;-77
2023/01/04 14:30:18;;;;;;;;;;;9.00;88.80;;;;;;5032700;28;20047;-78
2023/01/04 14:32:52;;;;;;;;;;;9.00;88.90;;;;;;5029650;28;19921;-76
2023/01/04 14:35:18;;;;;;;;;;;9.00;88.90;;;;;;5032922;28;19928;-76
2023/01/04 14:37:43;;;;;;;;;;;9.00;88.90;;;;;;5046932;28;19928;-76
2023/01/04 14:40:13;;;;;;;;;;;9.00;89.00;;;;;;5030972;28;20486;-77
2023/01/04 14:42:38;;;;;;;;;;;8.90;88.90;;;;;;5023810;28;21290;-75
2023/01/04 14:45:07;;;;;;;;;;;9.00;89.00;;;;;;5029544;28;19928;-77
2023/01/04 14:47:33;;;;;;;;;;;9.00;89.00;;;;;;5032922;28;19920;-76
2023/01/04 14:49:58;;;;;;;;;;;9.00;89.00;;;;;;5034472;28;19974;-77
2023/01/04 14:52:24;;;;;;;;;;;9.00;89.00;;;;;;5021366;28;19921;-78
2023/01/04 14:54:49;;;;;;;;;;;9.00;89.00;;;;;;5035473;28;19920;-78
2023/01/04 14:57:15;;;;;;;;;;;9.00;89.00;;;;;;5037981;28;19933;-78
2023/01/04 14:59:42;;;;;;;;;;;9.00;89.00;;;;;;5034590;28;19931;-73
2023/01/04 15:02:08;;;;;;;;;;;9.00;89.00;;;;;;5033950;28;20291;-73
2023/01/04 15:04:34;;;;;;;;;;;9.00;89.00;;;;;;5019957;28;19924;-76
2023/01/04 15:06:59;;;;;;;;;;;9.00;89.00;;;;;;5035623;28;19949;-78
2023/01/04 15:09:25;;;;;;;;;;;9.00;89.00;;;;;;5034855;28;19925;-77
2023/01/04 15:11:50;;;;;;;;;;;9.00;89.10;;;;;;5047410;28;20807;-78
2023/01/04 15:14:16;;;;;;;;;;;9.00;89.00;;;;;;5032661;28;20066;-78
2023/01/04 15:16:41;;;;;;;;;;;9.00;89.00;;;;;;5048449;28;19924;-77
2023/01/04 15:19:07;;;;;;;;;;;9.00;89.00;;;;;;5039012;28;20490;-77
2023/01/04 15:21:32;;;;;;;;;;;9.00;89.00;;;;;;5037058;28;19978;-78
2023/01/04 15:23:58;;;;;;;;;;;9.00;89.00;;;;;;5019878;28;20299;-77